Time;durP1;ratioP1;P1;durP2;ratioP2;P2;SDS_P1;SDS_P2;PMS_P1;PMS_P2;Temp;Humidity;BMP_temperature;BMP_pressure;BME280_temperature;BME280_humidity;BME280_pressure;Samples;Min_cycle;Max_cycle;Signal;HPM_P1;HPM_P2
2023/08/26 00:02:26;;;;;;;4.20;1.20;;;;;;;18.32;100.00;99900.56;104856;1254;67174;-50
2023/08/26 00:04:53;;;;;;;2.10;1.00;;;;;;;18.37;100.00;99898.87;105340;1259;72522;-50
2023/08/26 00:07:21;;;;;;;5.10;1.20;;;;;;;18.43;100.00;99897.33;104912;1257;60752;-51
2023/08/26 00:09:48;;;;;;;1.70;1.00;;;;;;;18.47;100.00;99893.36;104701;1254;60813;-50
2023/08/26 00:12:15;;;;;;;1.70;1.00;;;;;;;18.51;100.00;99891.08;104921;1259;74185;-49
2023/08/26 00:14:43;;;;;;;1.80;1.10;;;;;;;18.54;100.00;99893.05;104955;1254;67742;-51
2023/08/26 00:17:10;;;;;;;3.50;1.90;;;;;;;18.53;100.00;99890.72;104858;1253;70816;-50
2023/08/26 00:19:37;;;;;;;4.50;1.20;;;;;;;18.52;100.00;99890.80;104931;1257;60562;-50
2023/08/26 00:22:05;;;;;;;3.10;1.30;;;;;;;18.52;100.00;99887.02;104903;1259;60387;-51
2023/08/26 00:24:32;;;;;;;6.60;1.80;;;;;;;18.53;100.00;99888.39;109123;1253;72681;-51
2023/08/26 00:27:00;;;;;;;2.90;1.50;;;;;;;18.54;100.00;99890.09;109047;1254;66737;-51
2023/08/26 00:29:28;;;;;;;3.30;1.40;;;;;;;18.55;100.00;99887.52;108984;1253;71804;-50
2023/08/26 00:31:55;;;;;;;2.00;1.00;;;;;;;18.54;100.00;99888.60;108792;1256;60407;-50
2023/08/26 00:34:23;;;;;;;5.00;1.30;;;;;;;18.54;100.00;99887.67;109092;1253;58737;-50
2023/08/26 00:36:51;;;;;;;2.70;1.00;;;;;;;18.54;100.00;99890.64;108849;1253;72891;-52
2023/08/26 00:39:18;;;;;;;3.90;1.50;;;;;;;18.53;100.00;99891.66;109043;1254;66034;-51
2023/08/26 00:41:46;;;;;;;1.50;1.00;;;;;;;18.54;100.00;99889.75;109108;1253;71774;-52
2023/08/26 00:44:13;;;;;;;1.70;1.00;;;;;;;18.55;100.00;99887.45;109045;1254;58763;-51
2023/08/26 00:46:41;;;;;;;2.70;1.50;;;;;;;18.57;100.00;99885.75;109064;1254;60025;-53
2023/08/26 00:49:09;;;;;;;3.60;1.40;;;;;;;18.56;100.00;99887.61;108786;1253;74243;-52
2023/08/26 00:51:37;;;;;;;2.50;1.50;;;;;;;18.56;100.00;99889.80;109066;1254;65514;-52
2023/08/26 00:54:06;;;;;;;2.70;1.40;;;;;;;18.54;100.00;99891.75;106510;1254;71793;-52
2023/08/26 00:56:34;;;;;;;3.10;1.40;;;;;;;18.50;100.00;99891.88;104717;1258;60718;-51
2023/08/26 00:59:01;;;;;;;4.90;1.10;;;;;;;18.46;100.00;99887.64;104714;1261;61016;-50
2023/08/26 01:01:32;;;;;;;2.60;1.30;;;;;;;18.43;100.00;99883.48;104774;1259;72877;-51
2023/08/26 01:03:59;;;;;;;3.90;1.10;;;;;;;18.43;100.00;99879.20;104925;1255;66746;-50
2023/08/26 01:06:27;;;;;;;2.10;1.90;;;;;;;18.42;100.00;99874.51;104935;1259;72765;-51
2023/08/26 01:08:55;;;;;;;1.70;1.20;;;;;;;18.41;100.00;99875.66;104706;1256;61650;-51
2023/08/26 01:11:31;;;;;;;5.00;1.30;;;;;;;18.41;100.00;99878.20;104706;1256;60789;-51
2023/08/26 01:13:58;;;;;;;1.80;1.50;;;;;;;18.42;100.00;99876.34;104715;1257;72906;-52
2023/08/26 01:16:25;;;;;;;1.70;1.30;;;;;;;18.43;100.00;99874.98;104905;1254;66960;-52
2023/08/26 01:18:53;;;;;;;3.10;1.10;;;;;;;18.44;100.00;99877.66;105668;1260;71394;-49
2023/08/26 01:21:21;;;;;;;2.00;1.10;;;;;;;18.45;100.00;99874.50;105171;1255;60637;-49
2023/08/26 01:23:49;;;;;;;2.30;1.40;;;;;;;18.46;100.00;99876.92;104919;1254;61134;-48
2023/08/26 01:26:16;;;;;;;2.40;1.80;;;;;;;18.46;100.00;99875.09;104673;1254;74344;-51
2023/08/26 01:28:44;;;;;;;2.00;1.30;;;;;;;18.45;100.00;99871.71;105237;1253;69427;-50
2023/08/26 01:31:12;;;;;;;2.20;1.70;;;;;;;18.44;100.00;99867.83;104941;1253;73737;-49
2023/08/26 01:33:44;;;;;;;2.20;1.60;;;;;;;18.42;100.00;99863.59;104976;1257;60563;-50
2023/08/26 01:36:15;;;;;;;1.50;1.20;;;;;;;18.41;100.00;99863.73;106390;1253;60517;-50
2023/08/26 01:38:42;;;;;;;1.80;1.30;;;;;;;18.38;100.00;99861.74;105282;1254;73870;-49
2023/08/26 01:41:09;;;;;;;4.00;1.40;;;;;;;18.36;100.00;99857.40;104976;1259;66354;-48
2023/08/26 01:43:37;;;;;;;1.60;1.30;;;;;;;18.33;100.00;99852.17;104804;1256;71391;-50
2023/08/26 01:46:05;;;;;;;2.90;1.40;;;;;;;18.31;100.00;99857.20;104937;1254;63384;-50
2023/08/26 01:48:32;;;;;;;1.90;1.40;;;;;;;18.30;100.00;99851.83;105402;1258;60585;-52
2023/08/26 01:50:59;;;;;;;2.40;1.20;;;;;;;18.30;100.00;99850.55;105027;1254;73386;-48
2023/08/26 01:53:27;;;;;;;1.50;1.30;;;;;;;18.31;100.00;99851.61;105114;1254;66632;-52
2023/08/26 01:55:54;;;;;;;2.60;1.40;;;;;;;18.32;100.00;99850.47;105035;1257;71408;-50
2023/08/26 01:58:22;;;;;;;2.80;1.50;;;;;;;18.33;100.00;99848.02;104876;1259;60774;-51
2023/08/26 02:00:49;;;;;;;3.70;1.40;;;;;;;18.35;100.00;99846.24;105430;1253;60565;-49
2023/08/26 02:03:16;;;;;;;2.60;1.60;;;;;;;18.35;100.00;99846.23;104891;1254;72696;-52
2023/08/26 02:05:44;;;;;;;3.20;1.70;;;;;;;18.33;100.00;99841.29;104921;1254;65655;-51
2023/08/26 02:08:11;;;;;;;3.40;1.50;;;;;;;18.32;100.00;99834.79;104744;1254;73614;-50
2023/08/26 02:10:39;;;;;;;1.60;1.50;;;;;;;18.32;100.00;99831.20;104868;1261;60566;-52
2023/08/26 02:13:06;;;;;;;2.00;1.40;;;;;;;18.31;100.00;99837.44;104929;1253;60569;-49
2023/08/26 02:15:34;;;;;;;1.70;1.40;;;;;;;18.30;100.00;99838.39;105038;1255;74058;-51
2023/08/26 02:18:02;;;;;;;7.30;1.30;;;;;;;18.29;100.00;99837.93;104827;1261;66847;-51
2023/08/26 02:20:29;;;;;;;7.20;1.60;;;;;;;18.27;100.00;99837.95;105207;1253;71145;-49
2023/08/26 02:22:58;;;;;;;2.40;1.20;;;;;;;18.25;100.00;99837.36;104682;1257;60647;-50
2023/08/26 02:25:25;;;;;;;2.20;1.30;;;;;;;18.25;100.00;99839.19;105302;1254;61713;-52
2023/08/26 02:27:55;;;;;;;4.00;1.30;;;;;;;18.25;100.00;99839.02;104891;1254;72593;-50
2023/08/26 02:30:24;;;;;;;2.60;1.50;;;;;;;18.25;100.00;99837.58;104985;1253;67268;-50
2023/08/26 02:32:51;;;;;;;6.10;1.30;;;;;;;18.26;100.00;99835.70;104752;1254;73623;-50
2023/08/26 02:35:18;;;;;;;6.00;1.30;;;;;;;18.26;100.00;99836.02;104855;1257;60743;-51
2023/08/26 02:37:46;;;;;;;3.60;1.40;;;;;;;18.28;100.00;99823.12;105004;1256;60452;-50
2023/08/26 02:40:13;;;;;;;4.10;1.20;;;;;;;18.31;100.00;99821.09;104801;1254;72573;-50
2023/08/26 02:42:40;;;;;;;2.50;1.30;;;;;;;18.33;100.00;99815.27;104818;1253;66791;-51
2023/08/26 02:45:08;;;;;;;3.30;1.20;;;;;;;18.35;100.00;99813.88;104992;1254;72694;-51
2023/08/26 02:47:36;;;;;;;5.70;1.20;;;;;;;18.37;100.00;99813.67;104936;1254;60443;-51
2023/08/26 02:50:03;;;;;;;6.80;1.40;;;;;;;18.39;100.00;99809.14;105054;1256;60655;-51
2023/08/26 02:52:31;;;;;;;5.70;1.60;;;;;;;18.40;100.00;99812.14;105033;1253;72663;-51
2023/08/26 02:54:58;;;;;;;3.40;1.30;;;;;;;18.41;100.00;99814.09;104913;1254;65628;-51
2023/08/26 02:57:25;;;;;;;3.90;1.20;;;;;;;18.40;100.00;99812.17;105002;1254;71275;-50
2023/08/26 02:59:53;;;;;;;4.00;1.20;;;;;;;18.40;100.00;99812.75;104818;1254;61634;-51
2023/08/26 03:02:24;;;;;;;2.90;1.40;;;;;;;18.39;100.00;99816.05;104727;1254;60559;-51
2023/08/26 03:04:54;;;;;;;4.00;1.50;;;;;;;18.38;100.00;99812.10;105346;1255;74899;-50
2023/08/26 03:07:21;;;;;;;2.20;1.30;;;;;;;18.37;100.00;99814.00;104897;1258;65962;-51
2023/08/26 03:09:49;;;;;;;2.30;1.20;;;;;;;18.38;100.00;99816.71;109022;1253;73168;-52
2023/08/26 03:12:16;;;;;;;4.40;1.50;;;;;;;18.38;100.00;99819.23;109134;1253;61684;-52
2023/08/26 03:14:44;;;;;;;3.70;1.60;;;;;;;18.37;100.00;99822.05;109074;1255;60044;-52
2023/08/26 03:17:11;;;;;;;2.40;1.20;;;;;;;18.37;100.00;99817.55;109115;1253;74232;-52
2023/08/26 03:19:40;;;;;;;2.10;1.40;;;;;;;18.37;100.00;99819.00;109075;1253;66806;-52
2023/08/26 03:22:07;;;;;;;3.30;1.80;;;;;;;18.38;100.00;99818.72;109148;1253;70346;-52
2023/08/26 03:24:36;;;;;;;7.60;1.90;;;;;;;18.40;100.00;99813.47;108864;1254;59757;-52
2023/08/26 03:27:04;;;;;;;4.10;1.50;;;;;;;18.42;100.00;99811.67;109132;1253;60132;-52
2023/08/26 03:29:31;;;;;;;2.90;1.40;;;;;;;18.44;100.00;99807.89;109096;1253;73831;-52
2023/08/26 03:31:59;;;;;;;1.80;1.30;;;;;;;18.45;100.00;99812.09;108901;1253;65745;-52
2023/08/26 03:34:26;;;;;;;5.60;1.40;;;;;;;18.47;100.00;99812.48;109088;1256;73035;-52
2023/08/26 03:36:54;;;;;;;4.90;1.20;;;;;;;18.49;100.00;99814.90;109038;1255;61596;-52
2023/08/26 03:39:21;;;;;;;3.70;1.80;;;;;;;18.50;100.00;99818.10;109029;1253;58790;-52
2023/08/26 03:41:49;;;;;;;2.60;1.10;;;;;;;18.50;100.00;99813.73;108883;1253;74126;-52
2023/08/26 03:44:17;;;;;;;3.40;1.00;;;;;;;18.51;100.00;99817.06;109016;1253;65221;-52
2023/08/26 03:46:44;;;;;;;2.80;1.10;;;;;;;18.55;100.00;99811.02;109129;1252;70417;-52
2023/08/26 03:49:12;;;;;;;1.80;1.30;;;;;;;18.58;100.00;99808.79;107832;1256;60556;-51
2023/08/26 03:51:41;;;;;;;1.90;1.20;;;;;;;18.62;100.00;99803.40;104730;1259;227233;-50
2023/08/26 03:56:07;;;;;;;4.20;1.40;;;;;;;18.63;100.00;99832.95;101718;1293;601512;-50
2023/08/26 03:58:34;;;;;;;5.30;2.30;;;;;;;18.64;100.00;99814.81;106062;1267;60224;-52
2023/08/26 04:01:04;;;;;;;6.10;1.50;;;;;;;18.67;100.00;99809.31;104078;1267;60214;-51
2023/08/26 04:03:31;;;;;;;5.00;1.90;;;;;;;18.69;100.00;99798.42;104150;1267;72665;-51
2023/08/26 04:06:03;;;;;;;2.80;1.40;;;;;;;18.73;100.00;99797.74;104204;1267;66051;-50
2023/08/26 04:08:30;;;;;;;2.90;1.20;;;;;;;18.82;100.00;99794.80;104165;1272;210752;-51
2023/08/26 04:10:57;;;;;;;2.00;1.20;;;;;;;19.01;100.00;99795.97;104142;1267;60635;-49
2023/08/26 04:13:25;;;;;;;5.50;1.10;;;;;;;19.24;100.00;99794.02;104185;1270;60178;-51
2023/08/26 04:15:58;;;;;;;3.20;1.40;;;;;;;19.52;100.00;99795.36;104749;1269;71128;-50
2023/08/26 04:18:25;;;;;;;3.00;1.20;;;;;;;19.80;100.00;99787.16;106064;1264;66920;-51
2023/08/26 04:20:52;;;;;;;2.00;1.20;;;;;;;20.07;100.00;99771.87;107096;1263;74345;-51
2023/08/26 04:23:19;;;;;;;3.20;1.70;;;;;;;20.37;100.00;99762.48;104295;1264;62210;-52
2023/08/26 04:25:45;;;;;;;2.50;1.70;;;;;;;20.68;100.00;99759.34;104267;1263;60912;-51
2023/08/26 04:28:14;;;;;;;4.50;3.00;;;;;;;20.99;100.00;99759.23;104266;1264;73395;-52
2023/08/26 04:30:41;;;;;;;5.80;2.60;;;;;;;21.28;100.00;99758.62;104324;1267;67112;-51
2023/08/26 04:33:07;;;;;;;2.40;2.20;;;;;;;21.51;100.00;99753.52;104099;1264;73026;-50
2023/08/26 04:35:34;;;;;;;2.80;2.10;;;;;;;21.62;100.00;99747.37;104264;1267;60050;-51
2023/08/26 04:38:02;;;;;;;5.60;2.50;;;;;;;21.66;100.00;99746.08;104361;1263;60063;-52
2023/08/26 04:40:29;;;;;;;3.70;1.70;;;;;;;21.80;100.00;99745.66;104168;1273;72123;-51
2023/08/26 04:42:56;;;;;;;4.10;2.30;;;;;;;21.97;100.00;99743.36;104645;1270;65994;-50
2023/08/26 04:45:23;;;;;;;2.50;1.50;;;;;;;22.05;100.00;99742.31;103995;1266;71979;-50
2023/08/26 04:47:51;;;;;;;3.30;1.50;;;;;;;22.14;100.00;99741.52;104226;1270;60406;-50
2023/08/26 04:50:18;;;;;;;2.40;1.90;;;;;;;22.18;100.00;99743.47;104133;1270;59672;-49
2023/08/26 04:52:45;;;;;;;1.80;1.50;;;;;;;22.17;100.00;99747.64;104234;1265;73675;-51
2023/08/26 04:55:11;;;;;;;4.00;1.50;;;;;;;22.12;100.00;99745.67;104129;1271;67636;-49
2023/08/26 04:57:38;;;;;;;1.90;1.20;;;;;;;22.08;100.00;99744.85;104521;1265;73559;-48
2023/08/26 05:00:10;;;;;;;7.60;1.60;;;;;;;22.03;100.00;99745.12;104101;1266;60333;-52
2023/08/26 05:02:38;;;;;;;5.60;1.40;;;;;;;21.98;100.00;99747.41;104267;1271;62188;-51
2023/08/26 05:05:05;;;;;;;4.00;1.20;;;;;;;21.95;100.00;99747.91;104498;1265;74061;-51
2023/08/26 05:07:32;;;;;;;2.80;1.20;;;;;;;21.92;100.00;99742.55;104630;1269;67912;-51
2023/08/26 05:09:59;;;;;;;2.70;1.10;;;;;;;21.89;100.00;99739.60;104270;1270;70448;-52
2023/08/26 05:12:26;;;;;;;3.80;1.20;;;;;;;21.88;100.00;99738.45;104854;1270;60136;-52
2023/08/26 05:14:52;;;;;;;2.70;1.20;;;;;;;21.88;100.00;99736.77;104140;1271;59753;-53
2023/08/26 05:17:19;;;;;;;1.30;1.00;;;;;;;21.89;100.00;99735.77;104295;1270;73504;-52
2023/08/26 05:19:46;;;;;;;4.60;1.30;;;;;;;21.93;100.00;99735.69;104215;1265;67277;-51
2023/08/26 05:22:13;;;;;;;4.20;1.50;;;;;;;21.97;100.00;99732.88;104156;1267;72182;-51
2023/08/26 05:24:39;;;;;;;6.00;1.10;;;;;;;22.02;100.00;99733.39;104046;1271;59640;-53
2023/08/26 05:27:06;;;;;;;6.90;1.10;;;;;;;22.08;100.00;99730.05;104025;1266;61025;-52
2023/08/26 05:29:33;;;;;;;3.00;0.90;;;;;;;22.14;100.00;99725.60;104586;1265;73062;-52
2023/08/26 05:32:00;;;;;;;1.10;0.80;;;;;;;22.21;100.00;99724.16;104922;1263;67670;-53
2023/08/26 05:34:26;;;;;;;1.90;0.80;;;;;;;22.29;100.00;99717.95;104449;1263;73115;-52
2023/08/26 05:36:53;;;;;;;1.50;1.00;;;;;;;22.38;100.00;99720.36;104364;1262;60556;-52
2023/08/26 05:39:20;;;;;;;1.50;1.00;;;;;;;22.46;100.00;99721.71;104485;1263;60602;-50
2023/08/26 05:41:47;;;;;;;4.00;0.80;;;;;;;22.55;100.00;99721.54;104399;1262;73640;-52
2023/08/26 05:44:13;;;;;;;1.50;1.00;;;;;;;22.64;100.00;99724.88;104473;1262;59836;-51
2023/08/26 05:46:40;;;;;;;2.10;0.70;;;;;;;22.72;100.00;99727.55;104418;1268;73528;-51
2023/08/26 05:49:06;;;;;;;3.10;0.90;;;;;;;22.80;100.00;99728.30;104526;1262;61943;-49
2023/08/26 05:51:33;;;;;;;2.40;0.90;;;;;;;22.89;100.00;99729.75;104452;1267;59636;-52
2023/08/26 05:54:00;;;;;;;0.90;0.70;;;;;;;22.96;100.00;99724.80;105301;1263;73504;-52
2023/08/26 05:56:26;;;;;;;3.80;0.90;;;;;;;23.03;100.00;99722.31;104210;1264;59863;-51
2023/08/26 05:58:53;;;;;;;1.50;0.80;;;;;;;23.07;100.00;99723.14;104450;1262;73030;-49
2023/08/26 06:01:20;;;;;;;1.40;0.70;;;;;;;23.11;100.00;99724.37;108339;1262;57814;-51
2023/08/26 06:03:47;;;;;;;3.20;0.80;;;;;;;23.16;100.00;99724.99;108559;1257;60315;-52
2023/08/26 06:06:14;;;;;;;4.20;0.80;;;;;;;23.20;100.00;99723.48;108722;1257;73336;-52
2023/08/26 06:08:40;;;;;;;1.10;0.80;;;;;;;23.25;100.00;99723.36;108651;1257;65802;-51
2023/08/26 06:11:08;;;;;;;3.00;0.90;;;;;;;23.29;100.00;99722.33;108609;1257;57528;-51
2023/08/26 06:13:34;;;;;;;4.10;0.80;;;;;;;23.34;100.00;99716.91;108534;1257;59034;-52
2023/08/26 06:16:00;;;;;;;1.40;1.00;;;;;;;23.38;100.00;99715.35;108502;1257;58111;-52
2023/08/26 06:18:31;;;;;;;1.00;0.70;;;;;;;23.43;100.00;99718.03;108665;1257;73254;-52
2023/08/26 06:20:57;;;;;;;2.50;1.00;;;;;;;23.48;100.00;99721.73;108745;1257;65602;-52
2023/08/26 06:23:24;;;;;;;5.70;1.50;;;;;;;23.52;100.00;99716.75;108677;1257;73154;-52
2023/08/26 06:25:52;;;;;;;6.10;1.00;;;;;;;23.56;100.00;99718.14;108762;1259;57767;-51
2023/08/26 06:28:18;;;;;;;3.40;1.00;;;;;;;23.61;100.00;99723.84;108647;1257;60212;-51
2023/08/26 06:30:45;;;;;;;1.80;0.70;;;;;;;23.65;100.00;99721.95;108736;1257;73014;-52
2023/08/26 06:33:12;;;;;;;3.30;0.80;;;;;;;23.69;100.00;99726.15;108612;1257;65444;-52
2023/08/26 06:35:39;;;;;;;1.60;0.70;;;;;;;23.73;100.00;99725.39;108703;1257;70946;-52
2023/08/26 06:38:06;;;;;;;1.20;0.80;;;;;;;23.77;100.00;99722.55;108968;1254;58953;-52
2023/08/26 06:40:34;;;;;;;2.90;1.10;;;;;;;23.82;100.00;99725.23;108857;1254;59061;-52
2023/08/26 06:43:03;;;;;;;1.60;0.80;;;;;;;23.85;100.00;99721.19;108783;1254;72022;-51
2023/08/26 06:45:31;;;;;;;2.00;0.80;;;;;;;23.89;100.00;99719.14;108666;1257;68976;-51
2023/08/26 06:47:58;;;;;;;2.10;0.80;;;;;;;23.93;100.00;99719.58;105141;1254;73215;-51
2023/08/26 06:50:25;;;;;;;2.80;1.00;;;;;;;23.99;100.00;99721.49;105131;1254;60152;-51
2023/08/26 06:52:51;;;;;;;1.60;0.90;;;;;;;24.07;100.00;99722.30;105602;1254;59799;-50
2023/08/26 06:55:18;;;;;;;3.30;1.10;;;;;;;24.17;100.00;99725.13;105062;1254;73466;-51
2023/08/26 06:57:45;;;;;;;1.80;1.00;;;;;;;24.27;100.00;99726.15;105575;1257;67194;-51
2023/08/26 07:00:12;;;;;;;1.80;1.10;;;;;;;24.35;100.00;99725.86;105743;1254;72992;-51
2023/08/26 07:02:39;;;;;;;5.30;1.00;;;;;;;24.42;100.00;99728.20;105408;1256;60102;-52
2023/08/26 07:05:06;;;;;;;1.70;0.90;;;;;;;24.48;100.00;99736.02;105200;1253;61001;-51
2023/08/26 07:07:32;;;;;;;1.70;1.00;;;;;;;24.53;100.00;99742.95;105084;1254;73033;-52
2023/08/26 07:09:59;;;;;;;2.40;0.80;;;;;;;24.57;100.00;99747.40;104865;1254;59741;-51
2023/08/26 07:12:26;;;;;;;3.40;0.90;;;;;;;24.60;100.00;99751.28;104775;1254;72979;-50
2023/08/26 07:14:52;;;;;;;1.90;0.70;;;;;;;24.62;100.00;99754.27;104715;1255;60304;-52
2023/08/26 07:17:19;;;;;;;1.00;0.90;;;;;;;24.66;100.00;99758.98;104911;1256;59564;-53
2023/08/26 07:19:46;;;;;;;1.80;0.80;;;;;;;24.70;100.00;99757.14;104856;1256;59788;-51
2023/08/26 07:22:12;;;;;;;3.30;1.20;;;;;;;24.74;100.00;99755.56;105114;1257;68159;-51
2023/08/26 07:24:39;;;;;;;2.70;1.10;;;;;;;24.80;100.00;99755.45;104806;1257;73168;-49
2023/08/26 07:27:06;;;;;;;4.00;0.80;;;;;;;24.86;100.00;99755.73;104951;1254;60151;-50
2023/08/26 07:29:36;;;;;;;3.60;0.70;;;;;;;24.93;100.00;99761.22;104811;1254;60323;-53
2023/08/26 07:32:03;;;;;;;2.50;1.20;;;;;;;25.00;100.00;99763.59;104854;1255;73949;-51
2023/08/26 07:34:30;;;;;;;6.70;0.80;;;;;;;25.08;100.00;99757.98;105300;1256;67123;-50
2023/08/26 07:36:57;;;;;;;1.50;0.80;;;;;;;25.16;100.00;99754.54;104909;1257;59517;-52
2023/08/26 07:39:24;;;;;;;3.00;0.80;;;;;;;25.25;100.00;99755.70;106174;1256;59622;-52
2023/08/26 07:41:51;;;;;;;6.20;1.20;;;;;;;25.34;100.00;99756.07;105042;1254;59550;-52
2023/08/26 07:44:18;;;;;;;1.70;1.00;;;;;;;25.43;100.00;99755.78;105368;1254;73578;-52
2023/08/26 07:46:44;;;;;;;2.90;1.00;;;;;;;25.50;100.00;99758.83;104885;1254;59689;-52
2023/08/26 07:49:13;;;;;;;4.40;0.90;;;;;;;25.58;100.00;99758.14;105074;1254;73121;-51
2023/08/26 07:51:40;;;;;;;0.80;0.70;;;;;;;25.66;100.00;99749.73;104841;1256;59690;-53
2023/08/26 07:54:06;;;;;;;2.90;0.90;;;;;;;25.76;100.00;99744.39;104855;1254;59772;-52
2023/08/26 07:56:34;;;;;;;2.00;1.10;;;;;;;25.86;100.00;99739.06;104887;1254;59842;-53
2023/08/26 07:59:00;;;;;;;3.10;1.00;;;;;;;25.95;100.00;99738.40;105391;1255;66990;-52
2023/08/26 08:01:27;;;;;;;3.40;0.90;;;;;;;26.04;100.00;99736.99;104827;1254;60649;-53
2023/08/26 08:03:53;;;;;;;2.30;0.90;;;;;;;26.14;100.00;99734.20;104769;1257;59281;-53
2023/08/26 08:06:20;;;;;;;2.90;1.10;;;;;;;26.21;100.00;99732.23;104978;1254;60458;-53
2023/08/26 08:08:46;;;;;;;1.20;1.00;;;;;;;26.27;100.00;99733.23;105074;1256;60615;-54
2023/08/26 08:11:13;;;;;;;1.50;1.00;;;;;;;26.34;100.00;99730.95;104928;1256;60707;-53
2023/08/26 08:13:39;;;;;;;2.50;1.20;;;;;;;26.42;100.00;99729.42;104915;1254;59371;-52
2023/08/26 08:16:06;;;;;;;3.60;1.10;;;;;;;26.50;100.00;99729.98;104721;1257;62028;-52
2023/08/26 08:18:32;;;;;;;1.60;0.90;;;;;;;26.57;100.00;99733.14;105136;1255;60561;-54
2023/08/26 08:20:59;;;;;;;1.60;0.90;;;;;;;26.64;100.00;99737.09;104746;1253;64077;-52
2023/08/26 08:23:25;;;;;;;3.10;1.30;;;;;;;26.71;100.00;99737.59;104677;1254;60479;-54
2023/08/26 08:25:52;;;;;;;4.60;1.10;;;;;;;26.79;100.00;99739.46;104750;1257;71026;-51
2023/08/26 08:28:19;;;;;;;1.80;0.90;;;;;;;26.87;100.00;99741.13;104823;1255;60407;-51
2023/08/26 08:30:45;;;;;;;3.40;1.70;;;;;;;26.95;100.00;99740.36;104878;1254;60536;-53
2023/08/26 08:33:12;;;;;;;1.50;0.80;;;;;;;27.02;100.00;99736.40;104842;1254;61506;-54
2023/08/26 08:35:39;;;;;;;1.80;1.00;;;;;;;27.10;100.00;99736.95;105016;1254;67571;-53
2023/08/26 08:38:05;;;;;;;8.30;1.20;;;;;;;27.18;100.00;99738.39;104856;1254;72969;-53
2023/08/26 08:40:32;;;;;;;1.30;0.90;;;;;;;27.25;100.00;99733.31;104846;1257;60627;-52
2023/08/26 08:42:58;;;;;;;1.10;0.90;;;;;;;27.31;100.00;99734.23;104918;1254;60477;-52
2023/08/26 08:45:25;;;;;;;3.40;1.20;;;;;;;27.37;100.00;99732.80;107184;1254;74176;-53
2023/08/26 08:47:53;;;;;;;2.10;1.00;;;;;;;27.42;100.00;99732.00;104827;1256;60599;-52
2023/08/26 08:50:20;;;;;;;1.60;0.90;;;;;;;27.45;100.00;99732.55;104685;1254;73021;-52
2023/08/26 08:52:48;;;;;;;1.90;1.00;;;;;;;27.48;100.00;99733.79;104850;1254;60611;-52
2023/08/26 08:55:14;;;;;;;1.90;0.90;;;;;;;27.54;100.00;99732.81;109049;1253;60005;-52
2023/08/26 08:57:41;;;;;;;2.80;1.20;;;;;;;27.59;100.00;99731.51;109082;1253;73724;-51
2023/08/26 09:00:08;;;;;;;1.60;0.80;;;;;;;27.64;100.00;99731.16;109102;1254;66967;-51
2023/08/26 09:02:36;;;;;;;2.60;1.40;;;;;;;27.71;100.00;99728.17;109084;1254;72493;-53
2023/08/26 09:05:03;;;;;;;2.00;0.90;;;;;;;27.78;100.00;99730.98;108953;1254;60164;-52
2023/08/26 09:07:29;;;;;;;1.90;1.10;;;;;;;27.84;100.00;99725.40;108958;1254;58945;-52
2023/08/26 09:09:59;;;;;;;3.80;1.20;;;;;;;27.91;100.00;99729.84;108964;1253;58603;-52
2023/08/26 09:12:29;;;;;;;3.20;1.10;;;;;;;27.94;100.00;99730.68;109063;1253;69172;-52
2023/08/26 09:14:56;;;;;;;3.00;1.10;;;;;;;27.97;100.00;99735.19;108871;1254;72381;-52
2023/08/26 09:17:23;;;;;;;2.30;1.00;;;;;;;28.01;100.00;99736.05;109085;1253;60022;-53
2023/08/26 09:19:55;;;;;;;4.70;1.00;;;;;;;28.08;100.00;99736.16;108766;1254;60699;-52
2023/08/26 09:22:25;;;;;;;3.20;0.90;;;;;;;28.15;100.00;99736.59;109098;1254;75789;-52
2023/08/26 09:24:55;;;;;;;4.80;1.00;;;;;;;28.23;100.00;99736.02;109102;1253;67116;-52
2023/08/26 09:27:22;;;;;;;2.30;0.90;;;;;;;28.31;100.00;99733.39;109108;1255;72671;-53
2023/08/26 09:29:49;;;;;;;1.80;1.00;;;;;;;28.38;100.00;99731.59;108840;1254;60597;-52
2023/08/26 09:32:15;;;;;;;1.90;1.50;;;;;;;28.46;100.00;99731.19;108838;1254;60096;-52
2023/08/26 09:34:41;;;;;;;1.10;1.00;;;;;;;28.53;100.00;99728.36;109113;1254;72327;-52
2023/08/26 09:37:08;;;;;;;2.00;1.10;;;;;;;28.62;100.00;99725.95;106392;1255;65969;-53
2023/08/26 09:39:45;;;;;;;2.00;1.00;;;;;;;28.72;100.00;99724.22;104770;1254;72908;-53
2023/08/26 09:42:12;;;;;;;1.40;1.30;;;;;;;28.80;100.00;99725.71;105173;1257;60455;-53
2023/08/26 09:44:40;;;;;;;6.20;1.20;;;;;;;28.85;100.00;99723.88;105280;1256;60762;-51
2023/08/26 09:47:06;;;;;;;4.60;1.40;;;;;;;28.88;100.00;99725.54;105429;1254;74065;-52
2023/08/26 09:49:34;;;;;;;4.00;1.20;;;;;;;28.88;100.00;99728.35;105321;1254;67510;-52
2023/08/26 09:52:00;;;;;;;2.30;1.70;;;;;;;28.86;100.00;99727.51;106108;1254;74624;-53
2023/08/26 09:54:28;;;;;;;4.50;1.30;;;;;;;28.83;100.00;99731.91;104842;1254;62085;-53
2023/08/26 09:56:54;;;;;;;4.00;1.10;;;;;;;28.79;100.00;99731.64;108412;1254;60279;-54
2023/08/26 09:59:21;;;;;;;4.90;1.30;;;;;;;28.74;100.00;99733.76;104840;1253;61149;-54
2023/08/26 10:01:47;;;;;;;3.70;1.10;;;;;;;28.69;100.00;99734.44;104874;1257;67205;-53
2023/08/26 10:04:19;;;;;;;5.60;1.20;;;;;;;28.63;100.00;99734.54;105391;1255;73138;-53
2023/08/26 10:06:53;;;;;;;2.10;1.20;;;;;;;28.59;100.00;99741.66;105421;1255;60552;-53
2023/08/26 10:09:27;;;;;;;4.00;1.30;;;;;;;28.54;100.00;99755.64;104881;1260;60532;-54
2023/08/26 10:11:55;;;;;;;2.00;1.10;;;;;;;28.46;100.00;99762.71;104837;1259;74218;-53
2023/08/26 10:14:23;;;;;;;2.10;1.20;;;;;;;28.40;100.00;99760.32;105342;1253;66922;-54
2023/08/26 10:16:50;;;;;;;3.90;1.00;;;;;;;28.33;100.00;99757.27;105921;1253;74393;-53
2023/08/26 10:19:16;;;;;;;5.60;1.50;;;;;;;28.28;100.00;99755.31;105112;1257;61241;-54
2023/08/26 10:21:43;;;;;;;1.70;1.20;;;;;;;28.26;100.00;99754.73;104954;1253;60643;-53
2023/08/26 10:24:09;;;;;;;3.60;1.20;;;;;;;28.23;100.00;99755.66;104788;1253;60743;-55
2023/08/26 10:26:36;;;;;;;2.60;1.30;;;;;;;28.25;100.00;99758.83;104911;1253;61205;-54
2023/08/26 10:29:02;;;;;;;2.20;1.00;;;;;;;28.28;100.00;99760.84;104841;1256;60349;-53
2023/08/26 10:31:36;;;;;;;3.20;1.20;;;;;;;28.31;100.00;99762.02;104823;1253;60554;-53
2023/08/26 10:34:05;;;;;;;;;;;;;;;28.35;100.00;99763.93;106098;1256;60417;-53
2023/08/26 10:36:36;;;;;;;8.90;1.50;;;;;;;28.40;100.00;99766.83;104862;1257;74000;-54
2023/08/26 10:39:03;;;;;;;2.20;1.10;;;;;;;28.46;100.00;99766.59;108036;1254;67397;-55
2023/08/26 10:41:30;;;;;;;2.30;1.00;;;;;;;28.54;100.00;99758.61;105665;1253;73401;-53
2023/08/26 10:43:58;;;;;;;1.60;0.90;;;;;;;28.64;100.00;99755.45;105104;1257;60387;-52
2023/08/26 10:46:36;;;;;;;3.50;1.10;;;;;;;28.75;100.00;99758.61;105245;1256;60425;-52
2023/08/26 10:49:03;;;;;;;1.60;1.10;;;;;;;28.81;100.00;99755.58;104962;1253;74464;-54
2023/08/26 10:51:30;;;;;;;1.70;1.30;;;;;;;28.82;100.00;99756.80;104991;1257;68115;-53
2023/08/26 10:54:03;;;;;;;1.40;0.90;;;;;;;28.80;100.00;99755.32;105346;1253;73044;-52
2023/08/26 10:56:39;;;;;;;1.70;1.20;;;;;;;28.76;100.00;99752.16;105265;1257;60579;-52
2023/08/26 10:59:06;;;;;;;1.80;1.20;;;;;;;28.70;100.00;99756.58;104853;1253;60528;-53
2023/08/26 11:01:34;;;;;;;5.60;1.30;;;;;;;28.66;100.00;99757.36;104902;1253;73250;-52
2023/08/26 11:04:05;;;;;;;4.80;1.70;;;;;;;28.62;100.00;99756.36;105446;1253;66843;-53
2023/08/26 11:06:37;;;;;;;5.40;1.50;;;;;;;28.57;100.00;99753.53;105039;1254;73122;-53
2023/08/26 11:09:04;;;;;;;2.10;1.10;;;;;;;28.54;100.00;99756.73;105255;1253;60577;-51
2023/08/26 11:11:31;;;;;;;3.70;1.30;;;;;;;28.51;100.00;99758.15;105933;1258;60423;-52
2023/08/26 11:13:58;;;;;;;5.50;1.20;;;;;;;28.50;100.00;99763.45;104999;1253;74588;-54
2023/08/26 11:16:24;;;;;;;2.40;1.20;;;;;;;28.51;100.00;99763.52;104994;1253;67571;-54
2023/08/26 11:18:52;;;;;;;2.60;1.00;;;;;;;28.52;100.00;99766.59;105010;1253;73022;-54
2023/08/26 11:21:19;;;;;;;1.40;1.00;;;;;;;28.53;100.00;99761.88;105391;1253;60458;-55